Time;durP1;ratioP1;P1;durP2;ratioP2;P2;SDS_P1;SDS_P2;PMS_P1;PMS_P2;Temp;Humidity;BMP_temperature;BMP_pressure;BME280_temperature;BME280_humidity;BME280_pressure;Samples;Min_cycle;Max_cycle;Signal;HPM_P1;HPM_P2
2022/07/20 00:00:28;;;;;;;1.15;0.65;;;25.70;45.30;;;;;;5039205;28;20425;-82
2022/07/20 00:02:55;;;;;;;2.67;1.00;;;25.70;45.30;;;;;;5063538;28;20546;-82
2022/07/20 00:05:22;;;;;;;1.88;1.00;;;25.70;45.40;;;;;;5043014;28;20832;-83
2022/07/20 00:07:49;;;;;;;2.03;1.00;;;25.60;45.40;;;;;;5027497;28;20060;-83
2022/07/20 00:13:01;;;;;;;1.77;0.80;;;25.50;45.30;;;;;;5027429;28;20121;-83
2022/07/20 00:15:28;;;;;;;2.30;0.85;;;25.50;45.40;;;;;;5038183;28;20170;-83
2022/07/20 00:17:55;;;;;;;2.17;0.90;;;25.40;45.40;;;;;;5042208;28;20041;-83
2022/07/20 00:20:22;;;;;;;2.13;0.88;;;25.40;45.50;;;;;;5054854;28;20056;-82
2022/07/20 00:22:49;;;;;;;2.30;0.90;;;25.40;45.50;;;;;;5044889;28;20044;-82
2022/07/20 00:25:19;;;;;;;1.27;0.60;;;25.40;46.30;;;;;;5028066;28;20060;-83
2022/07/20 00:27:46;;;;;;;1.88;0.80;;;25.30;45.70;;;;;;5043591;28;20040;-83
2022/07/20 00:30:14;;;;;;;1.30;0.60;;;25.30;45.80;;;;;;5061347;28;20045;-83
2022/07/20 00:32:42;;;;;;;1.38;0.60;;;25.20;45.90;;;;;;5078513;28;20114;-82
2022/07/20 00:35:11;;;;;;;1.98;1.00;;;25.20;46.00;;;;;;5045235;28;20112;-83
2022/07/20 00:37:40;;;;;;;1.20;0.70;;;25.10;46.70;;;;;;5045552;28;20036;-83
2022/07/20 00:40:10;;;;;;;1.27;0.65;;;25.10;46.20;;;;;;5029383;28;20040;-83
2022/07/20 00:42:37;;;;;;;1.30;0.90;;;25.10;46.20;;;;;;5058412;28;20447;-81
2022/07/20 00:45:06;;;;;;;1.98;0.82;;;25.00;46.20;;;;;;5024065;28;20093;-82
2022/07/20 00:47:33;;;;;;;1.92;1.00;;;25.00;46.20;;;;;;5047276;28;20077;-82
2022/07/20 00:50:00;;;;;;;1.00;0.70;;;25.00;46.30;;;;;;5068735;28;20055;-82
2022/07/20 00:52:27;;;;;;;1.88;0.85;;;24.90;46.40;;;;;;5045325;28;20566;-83
2022/07/20 00:54:54;;;;;;;1.70;0.85;;;24.90;46.50;;;;;;5040440;28;20040;-82
2022/07/20 00:57:22;;;;;;;2.25;0.85;;;24.90;46.60;;;;;;5053890;28;20069;-83
2022/07/20 00:59:49;;;;;;;2.17;0.90;;;24.80;46.60;;;;;;5046471;28;20442;-83
2022/07/20 01:02:16;;;;;;;1.67;0.90;;;24.80;46.70;;;;;;5057449;28;20063;-82
2022/07/20 01:04:43;;;;;;;1.85;0.82;;;24.70;46.80;;;;;;5040505;28;20037;-83
2022/07/20 01:07:10;;;;;;;2.05;1.00;;;24.70;46.80;;;;;;5043478;28;20047;-83
2022/07/20 01:09:37;;;;;;;2.13;0.80;;;24.70;47.00;;;;;;5021407;28;20095;-83
2022/07/20 01:12:04;;;;;;;2.50;0.90;;;24.60;47.60;;;;;;5019525;28;20044;-82
2022/07/20 01:14:31;;;;;;;1.83;0.80;;;24.60;47.10;;;;;;5036582;28;20063;-82
2022/07/20 01:16:58;;;;;;;1.42;0.60;;;24.60;47.30;;;;;;5034618;28;20045;-83
2022/07/20 01:19:26;;;;;;;3.95;1.23;;;24.50;47.30;;;;;;5034631;28;20048;-82
2022/07/20 01:21:53;;;;;;;1.73;0.80;;;24.50;47.50;;;;;;5037098;28;20046;-83
2022/07/20 01:24:21;;;;;;;1.73;0.80;;;24.50;47.60;;;;;;5041070;28;20461;-83
2022/07/20 01:26:48;;;;;;;3.17;0.90;;;24.40;47.50;;;;;;5024200;28;20093;-83
2022/07/20 01:29:15;;;;;;;1.92;0.75;;;24.40;47.60;;;;;;5047580;28;20048;-83
2022/07/20 01:31:42;;;;;;;1.48;0.70;;;24.40;47.70;;;;;;5035015;28;20043;-84
2022/07/20 01:34:10;;;;;;;2.17;0.77;;;24.30;47.70;;;;;;5039715;28;20041;-83
2022/07/20 01:36:38;;;;;;;2.08;1.13;;;24.30;47.70;;;;;;5042385;28;20052;-83
2022/07/20 01:39:04;;;;;;;2.58;0.85;;;24.30;47.70;;;;;;5069164;28;20104;-83
2022/07/20 01:41:32;;;;;;;1.42;0.80;;;24.30;47.80;;;;;;5024298;28;20046;-82
2022/07/20 01:43:59;;;;;;;1.63;0.73;;;24.20;48.40;;;;;;5044698;28;20554;-82
2022/07/20 01:46:26;;;;;;;1.75;0.75;;;24.20;48.00;;;;;;5052917;28;20446;-82
2022/07/20 01:48:53;;;;;;;1.80;0.70;;;24.20;48.10;;;;;;5056167;28;20036;-82
2022/07/20 01:51:20;;;;;;;2.03;0.80;;;24.10;48.20;;;;;;5027337;28;20079;-82
2022/07/20 01:53:47;;;;;;;1.92;0.88;;;24.10;48.30;;;;;;5055538;28;20048;-83
2022/07/20 01:56:14;;;;;;;1.65;0.80;;;24.00;48.30;;;;;;5033345;28;20044;-83
2022/07/20 01:58:41;;;;;;;1.58;0.82;;;24.00;49.10;;;;;;5038100;28;20036;-82
2022/07/20 02:01:11;;;;;;;2.35;1.00;;;24.00;48.50;;;;;;5049343;28;20079;-82
2022/07/20 02:03:40;;;;;;;1.40;0.75;;;23.90;48.50;;;;;;5038000;28;20051;-83
2022/07/20 02:06:07;;;;;;;1.60;0.80;;;23.90;48.60;;;;;;5038826;28;20090;-82
2022/07/20 02:08:37;;;;;;;1.35;0.65;;;23.80;48.60;;;;;;5038855;28;20110;-82
2022/07/20 02:11:04;;;;;;;1.55;0.82;;;23.80;48.80;;;;;;5055451;28;20040;-83
2022/07/20 02:13:31;;;;;;;1.50;0.70;;;23.80;48.90;;;;;;5038639;28;20088;-82
2022/07/20 02:16:16;;;;;;;1.17;0.60;;;23.80;49.10;;;;;;5010563;28;20102;-82
2022/07/20 02:18:48;;;;;;;1.50;0.70;;;23.70;49.20;;;;;;5067629;28;20138;-82
2022/07/20 02:21:18;;;;;;;1.92;0.82;;;23.70;49.40;;;;;;5049293;28;20037;-82
2022/07/20 02:23:45;;;;;;;1.60;0.80;;;23.60;49.50;;;;;;5036883;28;20489;-82
2022/07/20 02:26:12;;;;;;;2.25;1.00;;;23.60;49.60;;;;;;5055800;28;20048;-82
2022/07/20 02:28:40;;;;;;;1.75;0.70;;;23.60;49.70;;;;;;5027266;28;20049;-82
2022/07/20 02:31:07;;;;;;;3.15;0.93;;;23.60;50.30;;;;;;5070988;28;20048;-82
2022/07/20 02:33:34;;;;;;;1.85;0.80;;;23.50;49.70;;;;;;5055367;28;20146;-82
2022/07/20 02:36:02;;;;;;;1.80;0.77;;;23.50;49.80;;;;;;5038372;28;20040;-82
2022/07/20 02:38:29;;;;;;;2.42;0.70;;;23.40;49.70;;;;;;5054644;28;20060;-82
2022/07/20 02:40:56;;;;;;;1.52;0.75;;;23.40;49.80;;;;;;5053078;28;20045;-82
2022/07/20 02:43:23;;;;;;;1.00;0.70;;;23.40;49.90;;;;;;5038168;28;20049;-82
2022/07/20 02:45:50;;;;;;;2.55;0.93;;;23.40;50.10;;;;;;5038417;28;20056;-81
2022/07/20 02:48:17;;;;;;;2.05;0.93;;;23.30;50.10;;;;;;5038790;28;20098;-82
2022/07/20 02:50:45;;;;;;;2.70;0.73;;;23.20;50.10;;;;;;5052176;28;20110;-81
2022/07/20 02:53:16;;;;;;;1.50;0.80;;;23.20;50.20;;;;;;5037634;28;20045;-83
2022/07/20 02:55:46;;;;;;;1.58;0.82;;;23.20;50.30;;;;;;5055122;28;20036;-82
2022/07/20 02:58:13;;;;;;;2.28;1.20;;;23.10;50.40;;;;;;5031139;28;20449;-82
2022/07/20 03:00:41;;;;;;;2.00;0.88;;;23.10;50.60;;;;;;5033520;28;20064;-82
2022/07/20 03:03:09;;;;;;;2.17;0.90;;;23.10;50.80;;;;;;5038476;28;20057;-82
2022/07/20 03:05:36;;;;;;;1.50;0.90;;;23.00;50.90;;;;;;5021542;28;20075;-81
2022/07/20 03:08:07;;;;;;;1.92;0.80;;;23.00;51.10;;;;;;5038203;28;20713;-82
2022/07/20 03:10:36;;;;;;;2.28;1.13;;;22.90;51.20;;;;;;5038306;28;20395;-83
2022/07/20 03:13:03;;;;;;;1.42;0.70;;;22.90;51.30;;;;;;5058481;28;20140;-82
2022/07/20 03:15:30;;;;;;;2.17;1.10;;;22.90;51.50;;;;;;5055108;28;20037;-83
2022/07/20 03:17:57;;;;;;;2.13;0.90;;;22.80;51.60;;;;;;5059860;28;20040;-82
2022/07/20 03:20:34;;;;;;;1.45;0.88;;;22.80;51.70;;;;;;5037538;28;20075;-83
2022/07/20 03:23:02;;;;;;;1.92;0.77;;;22.70;51.80;;;;;;5076691;28;20033;-81
2022/07/20 03:25:29;;;;;;;1.73;0.82;;;22.70;52.10;;;;;;5051111;28;20522;-81
2022/07/20 03:27:57;;;;;;;2.83;0.75;;;22.60;52.10;;;;;;5055057;28;20048;-81
2022/07/20 03:30:25;;;;;;;1.88;1.02;;;22.60;52.10;;;;;;5055754;28;20119;-81
2022/07/20 03:32:52;;;;;;;1.70;0.82;;;22.60;52.20;;;;;;5025646;28;20076;-81
2022/07/20 03:35:19;;;;;;;1.75;0.85;;;22.50;52.20;;;;;;5030021;28;20052;-81
2022/07/20 03:37:47;;;;;;;1.65;0.80;;;22.50;52.20;;;;;;5052437;28;20036;-81
2022/07/20 03:40:14;;;;;;;1.27;0.70;;;22.50;52.30;;;;;;5057214;28;20033;-81
2022/07/20 03:42:41;;;;;;;2.35;1.00;;;22.40;52.40;;;;;;5040147;28;20055;-82
2022/07/20 03:45:08;;;;;;;1.35;0.90;;;22.50;52.50;;;;;;5041141;28;20503;-82
2022/07/20 03:47:35;;;;;;;1.77;0.80;;;22.40;52.50;;;;;;5041980;28;20053;-82
2022/07/20 03:50:03;;;;;;;1.20;0.65;;;22.40;52.60;;;;;;5027962;28;20044;-82
2022/07/20 03:52:30;;;;;;;1.75;0.95;;;22.40;52.60;;;;;;5056131;28;20049;-82
2022/07/20 03:54:57;;;;;;;1.90;0.95;;;22.40;52.80;;;;;;5040680;28;20082;-82
2022/07/20 03:57:24;;;;;;;1.83;0.77;;;22.40;52.80;;;;;;5058024;28;20102;-82
2022/07/20 03:59:51;;;;;;;1.90;0.80;;;22.40;53.00;;;;;;5044944;28;20040;-82
2022/07/20 04:02:18;;;;;;;2.25;0.90;;;22.30;53.60;;;;;;5068310;28;20049;-83
2022/07/20 04:04:46;;;;;;;2.05;1.00;;;22.30;53.10;;;;;;5056117;28;20101;-82
2022/07/20 04:07:13;;;;;;;3.28;1.25;;;22.30;53.20;;;;;;5025660;28;20041;-83
2022/07/20 04:09:43;;;;;;;3.78;0.90;;;22.30;53.90;;;;;;5058149;28;20132;-82
2022/07/20 04:12:18;;;;;;;1.83;0.90;;;22.30;53.20;;;;;;5026593;28;20044;-82
2022/07/20 04:14:47;;;;;;;1.85;0.95;;;22.30;53.20;;;;;;5054889;28;20037;-82
2022/07/20 04:17:14;;;;;;;1.38;0.77;;;22.40;53.10;;;;;;5052814;28;20061;-82
2022/07/20 04:19:41;;;;;;;1.60;0.85;;;22.40;53.00;;;;;;5032693;28;20094;-82
2022/07/20 04:22:09;;;;;;;3.05;1.17;;;22.50;52.80;;;;;;5028481;28;20040;-82
2022/07/20 04:24:37;;;;;;;4.47;2.13;;;22.60;52.50;;;;;;5028346;28;20094;-82
2022/07/20 04:27:04;;;;;;;2.88;1.48;;;22.70;52.30;;;;;;5058252;28;20041;-82
2022/07/20 04:29:32;;;;;;;3.35;2.25;;;22.80;52.70;;;;;;5044885;28;20054;-82
2022/07/20 04:31:59;;;;;;;3.83;2.08;;;22.90;51.90;;;;;;5045784;28;20519;-83
2022/07/20 04:34:27;;;;;;;6.70;2.47;;;23.00;51.80;;;;;;5039086;28;20048;-82
2022/07/20 04:36:54;;;;;;;3.97;2.20;;;23.10;51.60;;;;;;5075142;28;20411;-82
2022/07/20 04:39:21;;;;;;;3.75;2.15;;;23.10;51.50;;;;;;5040665;28;20385;-82
2022/07/20 04:41:48;;;;;;;5.22;2.60;;;23.20;51.60;;;;;;5041229;28;20036;-82
2022/07/20 04:44:15;;;;;;;4.47;3.00;;;23.20;51.70;;;;;;5041121;28;20052;-82
2022/07/20 04:46:42;;;;;;;5.70;3.65;;;23.20;52.20;;;;;;5023962;28;20051;-82
2022/07/20 04:49:10;;;;;;;4.57;3.30;;;23.20;52.50;;;;;;5054113;28;20044;-81
2022/07/20 04:51:37;;;;;;;5.32;3.63;;;23.20;52.50;;;;;;5030897;28;20048;-82
2022/07/20 04:54:04;;;;;;;5.07;3.15;;;23.20;52.70;;;;;;5040489;28;20048;-84
2022/07/20 04:56:31;;;;;;;4.57;3.28;;;23.30;52.90;;;;;;5052506;28;20554;-84
2022/07/20 04:58:58;;;;;;;7.13;4.07;;;23.30;53.00;;;;;;5042692;28;20112;-85
2022/07/20 05:01:26;;;;;;;8.95;4.80;;;23.40;53.30;;;;;;5036425;28;20056;-84
2022/07/20 05:03:53;;;;;;;6.78;4.57;;;23.40;53.60;;;;;;5040420;28;20040;-84
2022/07/20 05:06:21;;;;;;;7.93;5.07;;;23.40;53.80;;;;;;5023493;28;20056;-84
2022/07/20 05:08:49;;;;;;;7.80;5.10;;;23.40;54.30;;;;;;5039824;28;20048;-85
2022/07/20 05:11:18;;;;;;;9.05;6.10;;;23.40;54.60;;;;;;5036736;28;20114;-85
2022/07/20 05:13:45;;;;;;;9.93;5.57;;;23.40;55.10;;;;;;5049845;28;20151;-84
2022/07/20 05:16:12;;;;;;;8.68;6.22;;;23.40;55.30;;;;;;5040064;28;20045;-85
2022/07/20 05:18:40;;;;;;;9.02;6.57;;;23.40;55.60;;;;;;5041724;28;20041;-82
2022/07/20 05:21:07;;;;;;;6.97;5.55;;;23.40;55.90;;;;;;5035559;28;20114;-83
2022/07/20 05:23:34;;;;;;;9.68;6.10;;;23.50;56.00;;;;;;5044242;28;20064;-82
2022/07/20 05:26:02;;;;;;;10.45;7.28;;;23.50;56.00;;;;;;5057970;28;20086;-83
2022/07/20 05:28:30;;;;;;;15.68;8.88;;;23.60;56.40;;;;;;5060643;28;20053;-83
2022/07/20 05:30:57;;;;;;;14.18;10.00;;;23.60;57.60;;;;;;5023665;28;20052;-82
2022/07/20 05:33:24;;;;;;;12.27;9.95;;;23.60;57.90;;;;;;5056972;28;20094;-83
2022/07/20 05:35:51;;;;;;;15.30;11.35;;;23.60;58.10;;;;;;5039050;28;20404;-83
2022/07/20 05:38:20;;;;;;;16.98;12.07;;;23.70;58.70;;;;;;5053717;28;20114;-82
2022/07/20 05:40:47;;;;;;;15.50;11.98;;;23.70;59.10;;;;;;5039821;28;20136;-82
2022/07/20 05:43:14;;;;;;;16.38;12.27;;;23.70;59.30;;;;;;5058322;28;20049;-83
2022/07/20 05:45:42;;;;;;;14.57;10.82;;;23.80;59.50;;;;;;5042413;28;20187;-84
2022/07/20 05:48:14;;;;;;;14.80;10.32;;;23.80;59.30;;;;;;5058695;28;20392;-84
2022/07/20 05:50:42;;;;;;;12.40;9.63;;;24.00;59.20;;;;;;5041584;28;20048;-83
2022/07/20 05:53:10;;;;;;;15.57;10.88;;;24.00;59.20;;;;;;5031031;28;20045;-82
2022/07/20 05:55:39;;;;;;;15.35;11.50;;;24.10;59.40;;;;;;5065453;28;20037;-83
2022/07/20 05:58:08;;;;;;;14.07;9.80;;;24.20;59.60;;;;;;5056240;28;20050;-83
2022/07/20 06:00:36;;;;;;;13.10;10.63;;;24.30;59.30;;;;;;5053280;28;20139;-83
2022/07/20 06:03:06;;;;;;;13.80;10.48;;;24.40;59.20;;;;;;5046903;28;20073;-83
2022/07/20 06:05:33;;;;;;;17.27;13.55;;;24.50;59.40;;;;;;5034563;28;20463;-83
2022/07/20 06:08:02;;;;;;;20.05;15.45;;;24.50;60.20;;;;;;5055171;28;20048;-83
2022/07/20 06:10:32;;;;;;;17.63;14.38;;;24.50;60.70;;;;;;5022517;28;20075;-83
2022/07/20 06:13:00;;;;;;;15.82;12.35;;;24.60;60.60;;;;;;5051633;28;20060;-83
2022/07/20 06:15:34;;;;;;;16.58;12.57;;;24.60;60.30;;;;;;5053733;28;20083;-82
2022/07/20 06:18:02;;;;;;;16.35;13.75;;;24.70;60.30;;;;;;5035412;28;20455;-83
2022/07/20 06:20:29;;;;;;;17.48;13.95;;;24.80;60.40;;;;;;5054616;28;20053;-83
2022/07/20 06:22:58;;;;;;;19.00;13.02;;;24.80;60.50;;;;;;5051472;28;20473;-83
2022/07/20 06:25:26;;;;;;;17.73;14.10;;;24.90;60.50;;;;;;5048309;28;20051;-83
2022/07/20 06:27:56;;;;;;;20.65;15.32;;;25.00;60.70;;;;;;5034358;28;20208;-83
2022/07/20 06:30:23;;;;;;;18.00;14.52;;;25.00;61.00;;;;;;5035699;28;20040;-83
2022/07/20 06:32:55;;;;;;;21.35;16.83;;;25.00;61.20;;;;;;5022598;28;20036;-82
2022/07/20 06:35:22;;;;;;;20.65;16.45;;;25.10;61.40;;;;;;5026982;28;20045;-82
2022/07/20 06:37:49;;;;;;;22.42;17.65;;;25.10;61.40;;;;;;5036393;28;20051;-82
2022/07/20 06:40:16;;;;;;;23.42;18.42;;;25.20;61.70;;;;;;5034745;28;20056;-81
2022/07/20 06:42:46;;;;;;;24.88;18.85;;;25.30;62.00;;;;;;5021408;28;20455;-82
2022/07/20 06:45:14;;;;;;;23.88;18.45;;;25.30;62.30;;;;;;5048846;28;20488;-82
2022/07/20 06:47:41;;;;;;;24.17;18.10;;;25.40;62.40;;;;;;5021506;28;20500;-82
2022/07/20 06:50:11;;;;;;;23.65;19.02;;;25.40;62.20;;;;;;5055218;28;20140;-83
2022/07/20 06:52:38;;;;;;;22.08;18.52;;;25.50;62.20;;;;;;5051482;28;20044;-83
2022/07/20 06:55:05;;;;;;;19.98;16.67;;;25.60;62.20;;;;;;5037990;28;20044;-82
2022/07/20 06:57:33;;;;;;;19.88;17.13;;;25.60;61.90;;;;;;5053548;28;20048;-83
2022/07/20 07:00:00;;;;;;;24.67;18.20;;;25.70;61.90;;;;;;5053309;28;20079;-82
2022/07/20 07:02:27;;;;;;;20.48;16.50;;;25.80;61.90;;;;;;5069057;28;20049;-83
2022/07/20 07:04:54;;;;;;;20.17;16.60;;;25.90;61.60;;;;;;5005078;28;20068;-80
2022/07/20 07:07:21;;;;;;;21.02;17.48;;;26.10;61.40;;;;;;5034162;28;20132;-82
2022/07/20 07:09:49;;;;;;;19.23;15.93;;;26.10;61.10;;;;;;5033935;28;20470;-82
2022/07/20 07:12:18;;;;;;;20.90;17.10;;;26.10;60.90;;;;;;5034841;28;20136;-84
2022/07/20 07:14:47;;;;;;;21.35;16.67;;;26.10;60.80;;;;;;5032653;28;20044;-82
2022/07/20 07:17:21;;;;;;;18.08;15.65;;;26.10;60.70;;;;;;5023546;28;20110;-81
2022/07/20 07:19:48;;;;;;;15.32;13.73;;;26.00;60.50;;;;;;5031872;28;20041;-83
2022/07/20 07:22:15;;;;;;;19.27;14.82;;;26.10;60.20;;;;;;5068362;28;20094;-82
2022/07/20 07:24:42;;;;;;;17.40;14.18;;;26.30;60.00;;;;;;5042127;28;20407;-82
2022/07/20 07:27:12;;;;;;;16.05;13.63;;;26.40;59.60;;;;;;5037885;28;20047;-84
2022/07/20 07:29:39;;;;;;;16.95;14.60;;;26.50;59.20;;;;;;5039966;28;20040;-84
2022/07/20 07:32:06;;;;;;;18.30;14.02;;;26.50;59.00;;;;;;5037208;28;20032;-84
2022/07/20 07:34:34;;;;;;;18.10;12.55;;;26.50;59.10;;;;;;5054134;28;20037;-83
2022/07/20 07:37:01;;;;;;;14.70;11.90;;;26.40;59.00;;;;;;5037357;28;20052;-81
2022/07/20 07:39:28;;;;;;;16.13;12.65;;;26.50;59.00;;;;;;5053787;28;20082;-82
2022/07/20 07:41:55;;;;;;;17.10;12.20;;;26.50;58.70;;;;;;5021563;28;20036;-83
2022/07/20 07:44:22;;;;;;;14.27;11.65;;;26.60;58.50;;;;;;5020954;28;20052;-81
2022/07/20 07:46:49;;;;;;;16.02;12.07;;;26.60;58.40;;;;;;5035798;28;20072;-79
2022/07/20 07:49:16;;;;;;;13.82;11.15;;;26.70;58.20;;;;;;5054369;28;20070;-80
2022/07/20 07:51:43;;;;;;;13.20;9.52;;;26.70;58.20;;;;;;5063771;28;20040;-81
2022/07/20 07:54:10;;;;;;;12.82;9.98;;;26.60;58.10;;;;;;5072302;28;20041;-82
2022/07/20 07:56:37;;;;;;;14.10;10.50;;;26.60;58.00;;;;;;5053111;28;20033;-81
2022/07/20 07:59:04;;;;;;;11.73;9.63;;;26.70;57.90;;;;;;5058928;28;20389;-82
2022/07/20 08:01:51;;;;;;;11.00;9.20;;;26.70;57.80;;;;;;5041916;28;20156;-81
2022/07/20 08:04:18;;;;;;;10.68;8.07;;;26.80;57.60;;;;;;5056002;28;20041;-81
2022/07/20 08:06:47;;;;;;;12.88;9.23;;;27.00;57.40;;;;;;5024584;28;20056;-81
2022/07/20 08:09:14;;;;;;;12.57;9.75;;;27.20;57.00;;;;;;5035277;28;20041;-82
2022/07/20 08:11:41;;;;;;;12.63;9.18;;;27.20;56.80;;;;;;5022632;28;20071;-83
2022/07/20 08:14:08;;;;;;;10.20;8.18;;;27.20;56.80;;;;;;5024207;28;20053;-85
2022/07/20 08:16:35;;;;;;;10.70;8.02;;;27.20;56.70;;;;;;5025500;28;20047;-81
2022/07/20 08:19:02;;;;;;;10.85;8.40;;;27.30;56.50;;;;;;5022780;28;20488;-85
2022/07/20 08:21:29;;;;;;;11.70;8.88;;;27.40;56.30;;;;;;5047369;28;20044;-85
2022/07/20 08:24:02;;;;;;;13.43;8.80;;;27.50;56.10;;;;;;5036976;28;20052;-85
2022/07/20 08:26:30;;;;;;;11.13;9.05;;;27.60;55.80;;;;;;5041679;28;20045;-84
2022/07/20 08:28:57;;;;;;;11.27;7.95;;;27.60;55.40;;;;;;5041164;28;20055;-86
2022/07/20 08:31:24;;;;;;;12.20;8.50;;;27.60;55.00;;;;;;5042232;28;20040;-86
2022/07/20 08:33:51;;;;;;;12.02;8.43;;;27.70;54.80;;;;;;5024897;28;20095;-83
2022/07/20 08:36:19;;;;;;;11.18;8.80;;;27.70;54.40;;;;;;5038947;28;20063;-90
2022/07/20 08:38:46;;;;;;;14.15;9.65;;;27.60;54.00;;;;;;5046594;28;20413;-83
2022/07/20 08:41:15;;;;;;;11.77;8.63;;;27.50;53.70;;;;;;5039773;28;20063;-88
2022/07/20 08:43:42;;;;;;;12.50;8.40;;;27.50;53.60;;;;;;5024740;28;20492;-85
2022/07/20 08:46:12;;;;;;;13.02;9.32;;;27.60;53.40;;;;;;5034726;28;20049;-83
2022/07/20 08:48:42;;;;;;;9.40;7.68;;;27.60;53.40;;;;;;5065319;28;20076;-85
2022/07/20 08:51:11;;;;;;;9.55;7.47;;;27.50;53.50;;;;;;5050357;28;20044;-83
2022/07/20 08:53:38;;;;;;;13.57;8.63;;;27.40;53.60;;;;;;5037715;28;20055;-84
2022/07/20 08:56:15;;;;;;;10.27;7.90;;;27.50;53.70;;;;;;5027572;28;20064;-86
2022/07/20 08:58:42;;;;;;;11.68;7.95;;;27.50;53.50;;;;;;5057706;28;20120;-82
2022/07/20 09:01:16;;;;;;;9.02;7.47;;;27.70;53.40;;;;;;5037943;28;20037;-83
2022/07/20 09:03:44;;;;;;;9.27;6.60;;;28.00;53.30;;;;;;5027432;28;20047;-82
2022/07/20 09:06:12;;;;;;;9.48;7.07;;;28.20;53.00;;;;;;5037972;28;20136;-83
2022/07/20 09:08:58;;;;;;;9.05;7.38;;;28.40;52.80;;;;;;5048077;28;20049;-89
2022/07/20 09:11:26;;;;;;;10.50;7.97;;;28.50;52.60;;;;;;5041002;28;20048;-84
2022/07/20 09:13:53;;;;;;;9.90;7.72;;;28.50;52.50;;;;;;5040529;28;20055;-80
2022/07/20 09:16:43;;;;;;;9.95;6.72;;;28.50;52.50;;;;;;5052865;28;20112;-81
2022/07/20 09:19:10;;;;;;;9.90;6.70;;;28.60;52.40;;;;;;5060782;28;20051;-86
2022/07/20 09:21:43;;;;;;;10.98;7.05;;;28.70;52.30;;;;;;5019745;28;20045;-84
2022/07/20 09:24:10;;;;;;;9.18;6.20;;;28.80;52.00;;;;;;5040523;28;20047;-86
2022/07/20 09:26:38;;;;;;;10.18;7.00;;;28.90;52.00;;;;;;5054323;28;20041;-82
2022/07/20 09:29:06;;;;;;;12.23;6.72;;;29.00;51.90;;;;;;5036601;28;20075;-82
2022/07/20 09:31:35;;;;;;;7.50;6.60;;;29.00;51.90;;;;;;5036757;28;20056;-84
2022/07/20 09:34:05;;;;;;;7.50;6.70;;;28.90;51.70;;;;;;5053248;28;20041;-87
2022/07/20 09:36:38;;;;;;;7.70;5.85;;;28.90;51.70;;;;;;5044695;28;20049;-85
2022/07/20 09:39:09;;;;;;;8.50;6.43;;;29.10;52.30;;;;;;5069098;28;20083;-88
2022/07/20 09:41:39;;;;;;;8.18;5.80;;;29.10;51.20;;;;;;5046673;28;20503;-85
2022/07/20 09:44:08;;;;;;;6.43;4.97;;;29.20;51.10;;;;;;5030247;28;20546;-84
2022/07/20 09:46:37;;;;;;;7.72;5.30;;;29.40;50.80;;;;;;5050576;28;20049;-85
2022/07/20 09:49:07;;;;;;;6.53;5.00;;;29.50;50.70;;;;;;5040405;28;20048;-85
2022/07/20 09:51:46;;;;;;;7.28;5.47;;;29.50;50.30;;;;;;5045525;28;20076;-85
2022/07/20 09:54:16;;;;;;;8.77;5.65;;;29.60;50.10;;;;;;5018644;28;20106;-84
2022/07/20 09:56:48;;;;;;;6.60;5.13;;;29.70;49.80;;;;;;5055338;28;20036;-83
2022/07/20 09:59:16;;;;;;;6.07;5.15;;;29.80;49.80;;;;;;5052221;28;20037;-83
2022/07/20 10:01:50;;;;;;;5.97;4.95;;;29.90;49.50;;;;;;5038418;28;20044;-78
2022/07/20 10:04:18;;;;;;;8.50;6.05;;;29.90;49.30;;;;;;5052119;28;20136;-78
2022/07/20 10:06:48;;;;;;;7.50;5.57;;;29.70;49.10;;;;;;5035927;28;20041;-77
2022/07/20 10:09:17;;;;;;;6.65;5.95;;;29.70;49.10;;;;;;5063049;28;20049;-77
2022/07/20 10:11:45;;;;;;;7.90;5.47;;;29.70;48.80;;;;;;5055118;28;20056;-78
2022/07/20 10:14:17;;;;;;;7.15;5.22;;;29.80;48.80;;;;;;5038734;28;20052;-77
2022/07/20 10:16:50;;;;;;;5.50;4.68;;;29.80;48.50;;;;;;5038199;28;20068;-76
2022/07/20 10:19:17;;;;;;;6.88;5.57;;;29.80;48.40;;;;;;5073079;28;20037;-81
2022/07/20 10:21:50;;;;;;;8.23;5.93;;;29.80;48.20;;;;;;5055038;28;20488;-78
2022/07/20 10:24:25;;;;;;;6.38;5.20;;;29.90;48.10;;;;;;5036313;28;20047;-78
2022/07/20 10:27:16;;;;;;;6.70;4.07;;;29.90;48.00;;;;;;5071986;28;20048;-76
2022/07/20 10:29:48;;;;;;;7.55;4.93;;;30.00;47.90;;;;;;5046820;28;20115;-76
2022/07/20 10:32:21;;;;;;;7.97;6.00;;;30.10;47.50;;;;;;5047161;28;21267;-75
2022/07/20 10:34:50;;;;;;;7.63;5.68;;;30.10;47.40;;;;;;5058665;28;20571;-78
2022/07/20 10:37:36;;;;;;;8.75;6.15;;;30.10;47.60;;;;;;5048420;28;20040;-76
2022/07/20 10:40:14;;;;;;;8.05;6.25;;;30.20;47.50;;;;;;5036609;28;20093;-77
2022/07/20 10:42:48;;;;;;;7.85;5.50;;;30.20;47.50;;;;;;5038309;28;20393;-80
2022/07/20 10:45:23;;;;;;;6.72;5.18;;;30.40;47.70;;;;;;5057405;28;20040;-78
2022/07/20 10:47:58;;;;;;;5.85;4.35;;;30.50;47.40;;;;;;5044990;28;20130;-79
2022/07/20 10:50:50;;;;;;;9.00;5.70;;;30.70;48.00;;;;;;5043357;28;20050;-79
2022/07/20 10:53:17;;;;;;;6.65;5.60;;;30.80;47.20;;;;;;5047590;28;20049;-77
2022/07/20 10:55:50;;;;;;;7.65;5.25;;;30.80;47.20;;;;;;5034535;28;20055;-78
2022/07/20 10:58:26;;;;;;;7.22;5.38;;;30.90;47.20;;;;;;5053280;28;20044;-79
2022/07/20 11:00:56;;;;;;;6.55;4.80;;;31.10;47.10;;;;;;5053121;28;20036;-78
2022/07/20 11:03:27;;;;;;;8.23;4.75;;;31.10;47.10;;;;;;5047955;28;20071;-77
2022/07/20 11:06:21;;;;;;;8.23;5.32;;;31.10;47.10;;;;;;5044049;28;20041;-77
2022/07/20 11:08:54;;;;;;;6.75;4.60;;;31.20;46.90;;;;;;5044526;28;20037;-76
2022/07/20 11:11:31;;;;;;;5.25;4.28;;;31.20;46.70;;;;;;5068573;28;20405;-78
2022/07/20 11:13:58;;;;;;;8.23;4.82;;;31.40;46.60;;;;;;5050780;28;20049;-78
2022/07/20 11:16:27;;;;;;;5.60;3.97;;;31.50;46.30;;;;;;5051681;28;20583;-77
2022/07/20 11:18:56;;;;;;;5.18;3.53;;;31.50;46.20;;;;;;5018179;28;20493;-78
2022/07/20 11:21:32;;;;;;;6.03;3.80;;;31.40;46.10;;;;;;5050816;28;20162;-77
2022/07/20 11:24:05;;;;;;;3.90;3.03;;;31.30;46.30;;;;;;5051446;28;20129;-76
2022/07/20 11:26:32;;;;;;;4.13;2.85;;;31.20;46.30;;;;;;5047298;28;20045;-77
2022/07/20 11:28:59;;;;;;;3.92;2.65;;;31.20;46.20;;;;;;5044655;28;20077;-78
2022/07/20 11:31:28;;;;;;;3.63;2.60;;;31.50;46.10;;;;;;5047677;28;20053;-76
2022/07/20 11:33:58;;;;;;;4.93;3.05;;;31.60;45.70;;;;;;5054577;28;20119;-75
2022/07/20 11:36:30;;;;;;;5.53;2.92;;;31.80;45.60;;;;;;5054149;28;20048;-75
2022/07/20 11:39:17;;;;;;;5.75;4.00;;;31.90;45.10;;;;;;5053993;28;20505;-75
2022/07/20 11:41:45;;;;;;;4.50;3.05;;;31.80;44.80;;;;;;5042867;28;20041;-76
2022/07/20 11:44:17;;;;;;;4.72;3.08;;;31.90;45.00;;;;;;5035359;28;20064;-76
2022/07/20 11:46:45;;;;;;;3.90;3.03;;;32.00;44.70;;;;;;5052818;28;20115;-76
2022/07/20 11:49:15;;;;;;;4.13;3.05;;;32.20;44.60;;;;;;5052135;28;20382;-77
2022/07/20 11:51:57;;;;;;;5.70;3.30;;;32.20;44.30;;;;;;5032929;28;20095;-76
2022/07/20 11:54:27;;;;;;;4.97;3.40;;;32.30;44.10;;;;;;5051670;28;20044;-76
2022/07/20 11:56:55;;;;;;;4.38;2.78;;;32.20;44.10;;;;;;5054859;28;20063;-77
2022/07/20 11:59:22;;;;;;;3.55;2.83;;;32.20;44.10;;;;;;5062974;28;20143;-77
2022/07/20 12:01:52;;;;;;;4.70;3.38;;;32.40;43.80;;;;;;5033085;28;20048;-76
2022/07/20 12:04:21;;;;;;;5.05;3.35;;;32.50;43.50;;;;;;5054179;28;20073;-77
2022/07/20 12:06:55;;;;;;;4.53;3.53;;;32.50;43.10;;;;;;5053079;28;20476;-78
2022/07/20 12:09:32;;;;;;;4.13;3.60;;;32.40;43.60;;;;;;5055592;28;20052;-77
2022/07/20 12:12:06;;;;;;;3.47;2.72;;;32.80;42.90;;;;;;5062840;28;20049;-78
2022/07/20 12:14:37;;;;;;;3.45;2.88;;;33.20;42.60;;;;;;5063580;28;20064;-77
2022/07/20 12:17:25;;;;;;;4.93;2.85;;;33.10;42.30;;;;;;5036810;28;20041;-77
2022/07/20 12:19:55;;;;;;;6.03;3.08;;;32.80;42.50;;;;;;5052408;28;20079;-76
2022/07/20 12:22:29;;;;;;;5.85;3.28;;;33.30;42.20;;;;;;5051982;28;20049;-77
2022/07/20 12:25:02;;;;;;;3.80;2.83;;;33.80;41.70;;;;;;5050474;28;20500;-77
2022/07/20 12:27:36;;;;;;;4.60;3.00;;;34.00;41.50;;;;;;5052691;28;20095;-77
2022/07/20 12:30:26;;;;;;;4.15;3.10;;;34.00;41.30;;;;;;5053807;28;20045;-76
2022/07/20 12:33:12;;;;;;;4.57;2.83;;;34.50;41.00;;;;;;5047699;28;20042;-76
2022/07/20 12:35:45;;;;;;;3.53;2.50;;;35.00;40.60;;;;;;5053389;28;20489;-76
2022/07/20 12:38:14;;;;;;;4.97;2.90;;;35.30;40.20;;;;;;5052062;28;20099;-76
2022/07/20 12:40:49;;;;;;;4.28;2.90;;;35.40;40.00;;;;;;5051945;28;20068;-77
2022/07/20 12:43:39;;;;;;;3.95;2.95;;;35.40;39.70;;;;;;5052209;28;20041;-76
2022/07/20 12:46:13;;;;;;;4.55;2.80;;;35.40;39.40;;;;;;5035342;28;20075;-76
2022/07/20 12:48:47;;;;;;;4.53;3.00;;;35.30;39.70;;;;;;5051140;28;20386;-78
2022/07/20 12:51:16;;;;;;;3.53;2.47;;;35.20;39.10;;;;;;5050484;28;20460;-79
2022/07/20 12:53:44;;;;;;;3.33;2.38;;;35.40;39.00;;;;;;5035364;28;20095;-77
2022/07/20 12:56:13;;;;;;;4.60;2.55;;;35.50;38.90;;;;;;5051507;28;20059;-78